Time;durP1;ratioP1;P1;durP2;ratioP2;P2;SDS_P1;SDS_P2;PMS_P1;PMS_P2;Temp;Humidity;BMP_temperature;BMP_pressure;BME280_temperature;BME280_humidity;BME280_pressure;Samples;Min_cycle;Max_cycle;Signal;HPM_P1;HPM_P2
2023/06/10 00:01:18;;;;;;;8.83;7.93;;;16.30;99.90;;;;;;5027722;28;20208;-76
2023/06/10 00:03:44;;;;;;;8.03;6.90;;;16.30;99.90;;;;;;5031008;28;20238;-75
2023/06/10 00:06:11;;;;;;;7.77;6.53;;;16.30;99.90;;;;;;5032094;28;20314;-76
2023/06/10 00:08:39;;;;;;;8.00;6.50;;;16.20;99.90;;;;;;5031973;28;20204;-75
2023/06/10 00:11:06;;;;;;;7.40;6.60;;;16.10;99.90;;;;;;5030581;28;20246;-76
2023/06/10 00:13:33;;;;;;;8.27;6.67;;;16.00;99.90;;;;;;5029940;28;20228;-76
2023/06/10 00:16:00;;;;;;;11.13;7.20;;;15.90;99.90;;;;;;5030536;28;20577;-76
2023/06/10 00:18:30;;;;;;;8.30;6.70;;;15.90;99.90;;;;;;5028025;28;20630;-76
2023/06/10 00:21:02;;;;;;;7.57;6.77;;;15.80;99.90;;;;;;5030999;28;20718;-76
2023/06/10 00:23:30;;;;;;;8.23;6.63;;;15.80;99.90;;;;;;5031925;28;20214;-75
2023/06/10 00:25:57;;;;;;;8.00;6.50;;;15.80;99.90;;;;;;5030680;28;20221;-76
2023/06/10 00:28:24;;;;;;;8.43;6.97;;;15.80;99.90;;;;;;5041999;28;20214;-76
2023/06/10 00:30:51;;;;;;;8.50;7.60;;;15.80;99.90;;;;;;5022563;28;20258;-75
2023/06/10 00:33:18;;;;;;;7.63;6.83;;;15.80;99.90;;;;;;5019892;28;20234;-75
2023/06/10 00:35:46;;;;;;;9.50;7.23;;;15.80;99.90;;;;;;5028497;28;20247;-75
2023/06/10 00:38:14;;;;;;;9.60;7.07;;;15.80;99.90;;;;;;5031775;28;20265;-76
2023/06/10 00:40:41;;;;;;;8.03;7.10;;;15.80;99.90;;;;;;5030218;28;20210;-76
2023/06/10 00:43:08;;;;;;;8.80;7.30;;;15.80;99.90;;;;;;5030437;28;20211;-76
2023/06/10 00:45:35;;;;;;;8.93;7.13;;;15.80;99.90;;;;;;5040665;28;20219;-75
2023/06/10 00:48:02;;;;;;;8.57;7.00;;;15.80;99.90;;;;;;5031007;28;20242;-76
2023/06/10 00:50:31;;;;;;;8.20;7.27;;;15.70;99.90;;;;;;5031614;28;20621;-76
2023/06/10 00:53:00;;;;;;;7.33;6.57;;;15.70;99.90;;;;;;5022416;28;20233;-76
2023/06/10 00:55:27;;;;;;;7.50;6.80;;;15.70;99.90;;;;;;5031438;28;20190;-75
2023/06/10 00:57:54;;;;;;;7.73;6.80;;;15.70;99.90;;;;;;5027376;28;20674;-76
2023/06/10 01:00:21;;;;;;;7.60;6.87;;;15.60;99.90;;;;;;5023149;28;20750;-76
2023/06/10 01:02:49;;;;;;;7.80;6.70;;;15.60;99.90;;;;;;5029364;28;20308;-76
2023/06/10 01:05:16;;;;;;;8.77;7.50;;;15.60;99.90;;;;;;5020085;28;20695;-75
2023/06/10 01:07:53;;;;;;;7.70;7.00;;;15.60;99.90;;;;;;5031516;28;20615;-76
2023/06/10 01:10:30;;;;;;;8.53;6.90;;;15.60;99.90;;;;;;5031538;28;20218;-76
2023/06/10 01:13:02;;;;;;;9.50;7.43;;;15.60;99.90;;;;;;5030887;28;20214;-75
2023/06/10 01:15:31;;;;;;;7.90;7.10;;;15.50;99.90;;;;;;5031586;28;20187;-76
2023/06/10 01:17:59;;;;;;;8.67;7.30;;;15.50;99.90;;;;;;5037917;28;20252;-76
2023/06/10 01:20:27;;;;;;;7.60;6.80;;;15.50;99.90;;;;;;5029797;28;20569;-76
2023/06/10 01:22:57;;;;;;;9.20;7.97;;;15.40;99.90;;;;;;5031112;28;21807;-77
2023/06/10 01:25:27;;;;;;;8.50;7.60;;;15.30;99.90;;;;;;5032812;28;20215;-75
2023/06/10 01:28:00;;;;;;;8.80;7.93;;;15.30;99.90;;;;;;5033524;28;20211;-75
2023/06/10 01:30:30;;;;;;;8.50;7.70;;;15.30;99.90;;;;;;5034164;28;20211;-76
2023/06/10 01:33:00;;;;;;;8.20;7.40;;;15.30;99.90;;;;;;5034811;28;20326;-75
2023/06/10 01:35:30;;;;;;;8.53;7.63;;;15.30;99.90;;;;;;5033592;28;20190;-76
2023/06/10 01:38:00;;;;;;;8.40;7.60;;;15.30;99.90;;;;;;5025229;28;20196;-75
2023/06/10 01:40:29;;;;;;;8.53;7.63;;;15.20;99.90;;;;;;5034333;28;20584;-75
2023/06/10 01:42:56;;;;;;;8.47;7.63;;;15.20;99.90;;;;;;5033583;28;20227;-75
2023/06/10 01:45:23;;;;;;;8.80;7.90;;;15.10;99.90;;;;;;5033437;28;20219;-75
2023/06/10 01:47:50;;;;;;;8.47;7.67;;;15.00;99.90;;;;;;5028150;28;20223;-75
2023/06/10 01:50:17;;;;;;;8.67;7.83;;;15.00;99.90;;;;;;5028122;28;20247;-75
2023/06/10 01:52:43;;;;;;;9.33;8.33;;;14.90;99.90;;;;;;5028219;28;20288;-75
2023/06/10 01:55:12;;;;;;;9.57;8.63;;;14.90;99.90;;;;;;5033550;28;20243;-76
2023/06/10 01:57:40;;;;;;;10.87;8.67;;;14.90;99.90;;;;;;5032983;28;20195;-76
2023/06/10 02:00:08;;;;;;;9.47;8.47;;;14.90;99.90;;;;;;5033677;28;20218;-76
2023/06/10 02:02:41;;;;;;;8.37;7.50;;;14.90;99.90;;;;;;5034200;28;20266;-75
2023/06/10 02:05:08;;;;;;;8.93;8.00;;;14.90;99.90;;;;;;5026603;28;20229;-75
2023/06/10 02:07:35;;;;;;;8.40;7.53;;;14.90;99.90;;;;;;5033004;28;20253;-75
2023/06/10 02:10:02;;;;;;;9.77;8.30;;;14.90;99.90;;;;;;5025438;28;20583;-75
2023/06/10 02:12:31;;;;;;;7.83;7.03;;;14.80;99.90;;;;;;5032913;28;20219;-75
2023/06/10 02:14:57;;;;;;;9.07;8.10;;;14.80;99.90;;;;;;5033974;28;20215;-76
2023/06/10 02:17:24;;;;;;;9.10;7.40;;;14.70;99.90;;;;;;5034020;28;20674;-75
2023/06/10 02:19:53;;;;;;;8.23;7.37;;;14.70;99.90;;;;;;5033740;28;20194;-75
2023/06/10 02:22:21;;;;;;;8.43;7.33;;;14.70;99.90;;;;;;5032967;28;20227;-76
2023/06/10 02:24:48;;;;;;;9.93;7.43;;;14.60;99.90;;;;;;5032708;28;20264;-75
2023/06/10 02:27:16;;;;;;;9.27;7.90;;;14.60;99.90;;;;;;5032608;28;20199;-76
2023/06/10 02:29:44;;;;;;;8.77;7.87;;;14.60;99.90;;;;;;5033479;28;20196;-76
2023/06/10 02:32:11;;;;;;;8.63;7.47;;;14.60;99.90;;;;;;5028658;28;20266;-76
2023/06/10 02:34:38;;;;;;;8.57;7.67;;;14.60;99.90;;;;;;5028886;28;20192;-76
2023/06/10 02:37:07;;;;;;;9.50;8.13;;;14.50;99.90;;;;;;5017532;28;20202;-76
2023/06/10 02:39:34;;;;;;;9.33;7.60;;;14.50;99.90;;;;;;5043393;28;20588;-77
2023/06/10 02:42:02;;;;;;;9.93;9.03;;;14.40;99.90;;;;;;5039697;28;20222;-82
2023/06/10 02:44:29;;;;;;;9.67;8.77;;;14.40;99.90;;;;;;5032239;28;20237;-77
2023/06/10 02:46:57;;;;;;;10.30;9.37;;;14.40;99.90;;;;;;5029722;28;20208;-77
2023/06/10 02:49:27;;;;;;;8.97;8.07;;;14.30;99.90;;;;;;5031181;28;20217;-77
2023/06/10 02:51:54;;;;;;;8.63;7.73;;;14.40;99.90;;;;;;5032726;28;20361;-77
2023/06/10 02:54:22;;;;;;;8.97;8.07;;;14.40;99.90;;;;;;5026035;28;20255;-78
2023/06/10 02:56:50;;;;;;;11.23;10.13;;;14.30;99.90;;;;;;5026937;28;20199;-77
2023/06/10 02:59:21;;;;;;;10.07;9.07;;;14.30;99.90;;;;;;5034859;28;20762;-77
2023/06/10 03:01:48;;;;;;;9.23;8.37;;;14.20;99.90;;;;;;5022002;28;20223;-77
2023/06/10 03:04:16;;;;;;;9.83;8.87;;;14.20;99.90;;;;;;5031089;28;20235;-77
2023/06/10 03:06:52;;;;;;;9.53;8.73;;;14.20;99.90;;;;;;5028662;28;20222;-78
2023/06/10 03:09:28;;;;;;;10.80;9.70;;;14.20;99.90;;;;;;5025823;28;20675;-77
2023/06/10 03:11:58;;;;;;;11.40;10.20;;;14.10;99.90;;;;;;5022196;28;20227;-77
2023/06/10 03:14:26;;;;;;;10.33;9.10;;;14.10;99.90;;;;;;5038181;28;20649;-78
2023/06/10 03:16:54;;;;;;;11.27;10.17;;;14.00;99.90;;;;;;5023898;28;20615;-79
2023/06/10 03:19:24;;;;;;;11.20;10.20;;;14.00;99.90;;;;;;5032190;28;20237;-78
2023/06/10 03:22:08;;;;;;;11.43;10.30;;;14.00;99.90;;;;;;5031941;28;20222;-79
2023/06/10 03:24:39;;;;;;;12.30;11.10;;;14.00;99.90;;;;;;5028324;28;20204;-80
2023/06/10 03:27:09;;;;;;;11.33;10.23;;;13.90;99.90;;;;;;5031485;28;20304;-77
2023/06/10 03:29:38;;;;;;;11.10;10.00;;;13.90;99.90;;;;;;5021181;28;20227;-76
2023/06/10 03:32:06;;;;;;;11.00;10.00;;;13.90;99.90;;;;;;5030603;28;20229;-77
2023/06/10 03:34:36;;;;;;;11.10;10.03;;;13.90;99.90;;;;;;5023067;28;20203;-77
2023/06/10 03:37:04;;;;;;;11.30;9.97;;;13.90;99.90;;;;;;5030800;28;20604;-77
2023/06/10 03:39:32;;;;;;;11.23;10.13;;;13.90;99.90;;;;;;5023533;28;20229;-77
2023/06/10 03:42:00;;;;;;;11.33;10.30;;;13.90;99.90;;;;;;5030758;28;20222;-77
2023/06/10 03:44:29;;;;;;;11.87;10.77;;;13.90;99.90;;;;;;5022773;28;20217;-78
2023/06/10 03:46:57;;;;;;;11.90;10.77;;;13.90;99.90;;;;;;5024560;28;20219;-76
2023/06/10 03:49:29;;;;;;;11.30;10.17;;;13.90;99.90;;;;;;5023563;28;20631;-80
2023/06/10 03:52:00;;;;;;;11.47;10.47;;;14.00;99.90;;;;;;5032588;28;20237;-78
2023/06/10 03:54:27;;;;;;;12.50;11.30;;;14.00;99.90;;;;;;5029826;28;20196;-78
2023/06/10 03:56:54;;;;;;;11.97;10.80;;;14.10;99.90;;;;;;5026893;28;20200;-77
2023/06/10 03:59:20;;;;;;;10.50;9.53;;;14.10;99.90;;;;;;5032339;28;20618;-78
2023/06/10 04:01:47;;;;;;;11.17;10.13;;;14.20;99.90;;;;;;5023554;28;20228;-78
2023/06/10 04:04:16;;;;;;;11.00;10.00;;;14.20;99.90;;;;;;5030699;28;20708;-77
2023/06/10 04:06:44;;;;;;;11.80;10.73;;;14.20;99.90;;;;;;5030484;28;20761;-78
2023/06/10 04:09:13;;;;;;;10.97;9.97;;;14.30;99.90;;;;;;5018905;28;20251;-77
2023/06/10 04:11:40;;;;;;;11.47;10.37;;;14.30;99.90;;;;;;5026764;28;20245;-78
2023/06/10 04:14:08;;;;;;;11.23;10.20;;;14.30;99.90;;;;;;5030814;28;20660;-78
2023/06/10 04:16:35;;;;;;;11.30;10.20;;;14.40;99.90;;;;;;5024387;28;20206;-77
2023/06/10 04:19:03;;;;;;;10.10;9.10;;;14.40;99.90;;;;;;5026717;28;20204;-77
2023/06/10 04:21:30;;;;;;;10.47;8.27;;;14.40;99.90;;;;;;5026713;28;20643;-78
2023/06/10 04:23:58;;;;;;;8.87;7.50;;;14.50;99.90;;;;;;5021275;28;20201;-77
2023/06/10 04:26:27;;;;;;;10.33;9.43;;;14.60;99.90;;;;;;5030494;28;20280;-77
2023/06/10 04:28:54;;;;;;;11.10;10.10;;;14.80;99.90;;;;;;5030178;28;20297;-77
2023/06/10 04:31:21;;;;;;;10.23;9.33;;;14.90;99.90;;;;;;5030181;28;20207;-78
2023/06/10 04:33:48;;;;;;;11.00;9.93;;;15.00;99.90;;;;;;5032222;23;20785;-81
2023/06/10 04:36:16;;;;;;;10.27;9.27;;;15.00;99.90;;;;;;5006489;28;20204;-81
2023/06/10 04:38:43;;;;;;;9.27;8.37;;;15.20;99.90;;;;;;5010217;28;20588;-82
2023/06/10 04:41:10;;;;;;;10.77;9.87;;;15.40;99.90;;;;;;5006296;28;20199;-79
2023/06/10 04:43:39;;;;;;;9.57;8.70;;;15.60;99.90;;;;;;5010475;28;20280;-79
2023/06/10 04:46:06;;;;;;;7.93;7.13;;;15.70;99.90;;;;;;5009534;28;20225;-83
2023/06/10 04:48:35;;;;;;;11.80;9.60;;;15.90;99.90;;;;;;4999566;28;20208;-80
2023/06/10 04:51:02;;;;;;;9.30;8.50;;;16.90;99.90;;;;;;4991382;28;20264;-78
2023/06/10 04:53:29;;;;;;;9.77;8.77;;;17.80;99.90;;;;;;5002625;28;20220;-78
2023/06/10 04:55:57;;;;;;;9.57;8.57;;;18.00;99.90;;;;;;5008016;28;20257;-80
2023/06/10 04:58:24;;;;;;;9.00;8.20;;;18.20;99.90;;;;;;4997563;28;20236;-78
2023/06/10 05:00:52;;;;;;;8.93;8.13;;;18.10;99.90;;;;;;5004288;28;20227;-78
2023/06/10 05:03:19;;;;;;;10.23;9.33;;;18.00;99.90;;;;;;4993063;28;20218;-79
2023/06/10 05:05:45;;;;;;;7.40;6.70;;;17.90;99.90;;;;;;4990708;28;20683;-79
2023/06/10 05:08:12;;;;;;;8.50;7.73;;;18.00;99.90;;;;;;4986341;28;20202;-78
2023/06/10 05:10:39;;;;;;;9.80;7.13;;;18.10;99.90;;;;;;4989262;28;20229;-80
2023/06/10 05:13:06;;;;;;;8.10;7.30;;;18.20;99.90;;;;;;5003929;28;20564;-78
2023/06/10 05:15:33;;;;;;;7.10;6.40;;;18.30;99.90;;;;;;5008024;28;20208;-78
2023/06/10 05:18:02;;;;;;;7.37;6.67;;;18.50;99.90;;;;;;5005818;28;20204;-79
2023/06/10 05:20:29;;;;;;;8.33;6.87;;;18.70;99.90;;;;;;4994013;28;20201;-80
2023/06/10 05:22:56;;;;;;;7.30;6.60;;;18.90;99.90;;;;;;5001729;28;20224;-80
2023/06/10 05:25:23;;;;;;;7.30;6.60;;;19.00;99.90;;;;;;4996173;28;20209;-78
2023/06/10 05:27:49;;;;;;;8.77;7.87;;;19.00;99.90;;;;;;5000506;28;20224;-78
2023/06/10 05:30:18;;;;;;;9.10;7.77;;;19.00;99.90;;;;;;4996521;28;20209;-79
2023/06/10 05:32:45;;;;;;;7.27;6.13;;;19.00;99.90;;;;;;4996968;28;20239;-77
2023/06/10 05:35:13;;;;;;;8.20;7.40;;;19.00;99.90;;;;;;4998789;28;20255;-78
2023/06/10 05:37:40;;;;;;;8.20;6.43;;;19.20;99.90;;;;;;4996599;28;20251;-78
2023/06/10 05:40:08;;;;;;;7.40;6.70;;;19.50;99.90;;;;;;4999869;28;20197;-77
2023/06/10 05:42:35;;;;;;;7.80;7.00;;;19.90;99.90;;;;;;4985787;28;20252;-79
2023/06/10 05:45:02;;;;;;;7.30;6.43;;;20.50;99.90;;;;;;4993833;28;20201;-81
2023/06/10 05:47:29;;;;;;;7.20;6.50;;;21.00;99.90;;;;;;5004067;28;20308;-79
2023/06/10 05:49:55;;;;;;;6.90;6.17;;;21.60;99.90;;;;;;4986568;28;20194;-79
2023/06/10 05:52:24;;;;;;;7.20;6.50;;;22.20;99.90;;;;;;4987724;28;20250;-80
2023/06/10 05:54:51;;;;;;;8.70;7.17;;;22.80;99.90;;;;;;5007037;28;20205;-80
2023/06/10 05:57:18;;;;;;;7.07;6.37;;;23.00;99.90;;;;;;4991182;28;20267;-80
2023/06/10 05:59:44;;;;;;;8.33;6.37;;;23.30;99.90;;;;;;5003672;28;20206;-80
2023/06/10 06:02:11;;;;;;;6.87;6.17;;;23.60;99.90;;;;;;4996802;28;20220;-80
2023/06/10 06:04:38;;;;;;;7.80;6.23;;;23.80;99.90;;;;;;5009189;28;20200;-79
2023/06/10 06:07:05;;;;;;;6.63;6.00;;;24.10;99.90;;;;;;5002722;28;20290;-80
2023/06/10 06:09:34;;;;;;;7.00;6.30;;;24.20;99.90;;;;;;4998202;28;20212;-80
2023/06/10 06:12:00;;;;;;;8.27;7.50;;;24.40;99.90;;;;;;5005776;28;20641;-81
2023/06/10 06:14:27;;;;;;;9.37;6.47;;;24.60;99.90;;;;;;5007201;28;20189;-81
2023/06/10 06:16:54;;;;;;;9.13;7.23;;;24.60;99.90;;;;;;4996003;28;20256;-77
2023/06/10 06:19:21;;;;;;;8.50;7.77;;;24.70;99.90;;;;;;5001933;28;20201;-77
2023/06/10 06:21:47;;;;;;;6.87;5.80;;;25.10;99.90;;;;;;5010680;28;20255;-77
2023/06/10 06:24:15;;;;;;;6.13;5.53;;;25.40;99.90;;;;;;5009473;28;20275;-77
2023/06/10 06:26:43;;;;;;;6.60;5.90;;;25.70;99.90;;;;;;5007210;28;20243;-77
2023/06/10 06:29:10;;;;;;;8.53;7.77;;;25.80;99.90;;;;;;5007336;28;20209;-76
2023/06/10 06:31:36;;;;;;;8.67;7.97;;;25.90;99.90;;;;;;5010068;28;20665;-77
2023/06/10 06:34:03;;;;;;;8.60;7.80;;;25.70;99.90;;;;;;5002506;28;20660;-77
2023/06/10 06:36:30;;;;;;;8.80;8.00;;;25.80;99.90;;;;;;5013904;28;20255;-77
2023/06/10 06:38:58;;;;;;;7.83;7.03;;;26.00;99.90;;;;;;5011114;28;20196;-76
2023/06/10 06:41:25;;;;;;;7.80;6.30;;;26.10;99.90;;;;;;4991911;28;20291;-77
2023/06/10 06:43:54;;;;;;;7.93;5.90;;;26.20;99.90;;;;;;5005232;28;20240;-82
2023/06/10 06:46:25;;;;;;;6.97;6.27;;;26.50;99.90;;;;;;5006614;28;20208;-80
2023/06/10 06:48:52;;;;;;;6.33;5.33;;;26.50;99.90;;;;;;5009914;28;20255;-79
2023/06/10 06:51:19;;;;;;;8.33;6.63;;;26.60;99.90;;;;;;5009849;28;20248;-77
2023/06/10 06:53:45;;;;;;;6.63;5.97;;;26.70;99.90;;;;;;5005613;28;20248;-76
2023/06/10 06:56:13;;;;;;;6.40;5.80;;;26.60;99.90;;;;;;5012300;28;20250;-76
2023/06/10 06:58:39;;;;;;;7.00;5.90;;;26.70;99.90;;;;;;5007387;28;20224;-76
2023/06/10 07:01:08;;;;;;;6.60;5.90;;;26.90;99.90;;;;;;4997411;28;20201;-79
2023/06/10 07:03:35;;;;;;;6.03;5.40;;;26.70;99.90;;;;;;4997850;28;20614;-76
2023/06/10 07:06:01;;;;;;;7.07;5.87;;;26.70;99.90;;;;;;5003237;28;20621;-76
2023/06/10 07:08:28;;;;;;;5.53;5.03;;;26.90;99.90;;;;;;5010700;28;20216;-76
2023/06/10 07:10:55;;;;;;;6.43;5.80;;;27.00;99.90;;;;;;5009342;28;20267;-76
2023/06/10 07:13:22;;;;;;;7.83;5.97;;;27.00;99.90;;;;;;5003378;28;20232;-76
2023/06/10 07:15:49;;;;;;;6.80;6.13;;;27.00;99.90;;;;;;4995553;28;20225;-76
2023/06/10 07:18:17;;;;;;;6.77;5.93;;;27.10;99.90;;;;;;5008688;28;20797;-79
2023/06/10 07:20:44;;;;;;;7.83;5.90;;;27.00;99.90;;;;;;5002999;28;20204;-75
2023/06/10 07:23:11;;;;;;;5.97;5.20;;;27.00;99.90;;;;;;5008282;28;20267;-76
2023/06/10 07:25:38;;;;;;;6.97;5.67;;;27.40;99.90;;;;;;4999072;28;20228;-76
2023/06/10 07:28:05;;;;;;;10.50;6.03;;;27.70;99.90;;;;;;5006541;28;20272;-75
2023/06/10 07:30:31;;;;;;;5.97;5.37;;;28.10;99.90;;;;;;5008882;28;20243;-75
2023/06/10 07:32:58;;;;;;;5.97;5.33;;;28.20;99.90;;;;;;5001187;28;20271;-77
2023/06/10 07:35:27;;;;;;;6.60;5.47;;;27.90;99.90;;;;;;5002512;28;20200;-76
2023/06/10 07:37:53;;;;;;;7.27;5.00;;;27.60;99.90;;;;;;4996966;28;20197;-77
2023/06/10 07:40:20;;;;;;;6.30;5.70;;;27.50;99.90;;;;;;4992816;28;20259;-77
2023/06/10 07:42:47;;;;;;;5.63;5.13;;;28.00;99.90;;;;;;5006582;28;20225;-81
2023/06/10 07:45:14;;;;;;;6.03;5.43;;;28.00;99.90;;;;;;5006256;28;20680;-77
2023/06/10 07:47:40;;;;;;;6.00;5.40;;;28.20;99.90;;;;;;5009181;28;20716;-77
2023/06/10 07:50:08;;;;;;;5.83;5.20;;;28.20;99.90;;;;;;5002020;28;20676;-77
2023/06/10 07:52:36;;;;;;;6.03;5.43;;;28.60;99.90;;;;;;5003019;28;20349;-77
2023/06/10 07:55:05;;;;;;;5.67;5.17;;;28.70;99.90;;;;;;4995405;28;20194;-77
2023/06/10 07:57:34;;;;;;;5.70;4.93;;;28.60;99.90;;;;;;5002721;28;20199;-77
2023/06/10 08:00:03;;;;;;;5.63;5.03;;;28.50;99.90;;;;;;5007202;28;20288;-77
2023/06/10 08:02:39;;;;;;;5.90;4.93;;;28.50;99.90;;;;;;5006897;28;20860;-81
2023/06/10 08:05:07;;;;;;;6.13;5.53;;;28.80;99.90;;;;;;5004730;28;20260;-78
2023/06/10 08:07:33;;;;;;;8.00;7.30;;;28.90;99.90;;;;;;5009365;28;20225;-81
2023/06/10 08:10:02;;;;;;;6.57;5.87;;;29.00;99.90;;;;;;4996211;28;20206;-81
2023/06/10 08:12:29;;;;;;;8.07;5.23;;;28.80;99.90;;;;;;5012134;28;20224;-81
2023/06/10 08:14:55;;;;;;;6.13;5.53;;;28.80;99.90;;;;;;4992344;28;20200;-80
2023/06/10 08:17:23;;;;;;;6.43;5.83;;;29.00;99.90;;;;;;5006124;28;20288;-80
2023/06/10 08:19:50;;;;;;;6.83;6.13;;;28.90;99.90;;;;;;4997997;28;20671;-81
2023/06/10 08:22:16;;;;;;;6.60;6.00;;;28.50;99.90;;;;;;4987004;28;20228;-80
2023/06/10 08:24:43;;;;;;;6.63;5.93;;;28.40;99.90;;;;;;4992856;28;20259;-81
2023/06/10 08:27:11;;;;;;;7.20;6.50;;;28.30;99.90;;;;;;4992608;28;20214;-81
2023/06/10 08:29:38;;;;;;;6.77;6.17;;;28.70;99.90;;;;;;4991256;28;20198;-80
2023/06/10 08:32:05;;;;;;;5.93;5.43;;;28.50;99.90;;;;;;4991550;28;20248;-80
2023/06/10 08:34:35;;;;;;;4.83;4.43;;;28.90;99.90;;;;;;4999364;28;20205;-81
2023/06/10 08:37:01;;;;;;;5.80;5.20;;;29.20;99.90;;;;;;4991513;28;20193;-80
2023/06/10 08:39:31;;;;;;;5.80;5.27;;;28.80;99.90;;;;;;4994127;28;20209;-80
2023/06/10 08:42:05;;;;;;;6.80;6.20;;;28.70;99.90;;;;;;4986541;28;20213;-81
2023/06/10 08:44:38;;;;;;;7.33;5.63;;;29.00;99.90;;;;;;4987567;28;20280;-80
2023/06/10 08:47:11;;;;;;;6.60;6.00;;;29.10;99.90;;;;;;5003387;28;20216;-81
2023/06/10 08:49:43;;;;;;;5.93;5.43;;;29.20;99.90;;;;;;4995080;28;20577;-80
2023/06/10 08:52:15;;;;;;;6.00;5.40;;;29.80;99.90;;;;;;4994145;28;20292;-81
2023/06/10 08:54:44;;;;;;;7.07;6.40;;;29.70;99.90;;;;;;5002721;28;20201;-80
2023/06/10 08:57:11;;;;;;;6.33;5.73;;;29.70;99.90;;;;;;4995862;28;20207;-80
2023/06/10 08:59:40;;;;;;;5.13;4.73;;;29.80;99.90;;;;;;4992270;28;20205;-81
2023/06/10 09:02:09;;;;;;;5.73;5.13;;;29.70;99.90;;;;;;4991407;28;20209;-80
2023/06/10 09:04:37;;;;;;;5.27;4.77;;;29.50;99.90;;;;;;4987231;28;20206;-80
2023/06/10 09:07:05;;;;;;;6.50;5.90;;;29.40;99.90;;;;;;4986456;28;20194;-80
2023/06/10 09:09:35;;;;;;;6.40;5.70;;;29.40;99.90;;;;;;4987536;28;20290;-79
2023/06/10 09:12:01;;;;;;;5.77;5.27;;;29.50;99.90;;;;;;4990367;28;20276;-79
2023/06/10 09:14:28;;;;;;;5.63;5.13;;;29.80;99.90;;;;;;5000408;28;20197;-79
2023/06/10 09:16:57;;;;;;;5.10;4.70;;;30.40;99.90;;;;;;4990694;28;20228;-79
2023/06/10 09:19:25;;;;;;;5.60;5.00;;;30.60;99.90;;;;;;4989199;28;20197;-81
2023/06/10 09:21:52;;;;;;;4.80;4.30;;;30.60;99.50;;;;;;4994560;28;20201;-81
2023/06/10 09:24:19;;;;;;;6.97;6.37;;;30.60;99.90;;;;;;4992469;28;20197;-80
2023/06/10 09:26:46;;;;;;;6.77;6.17;;;30.40;98.80;;;;;;4982732;28;20233;-81
2023/06/10 09:29:13;;;;;;;5.00;4.50;;;30.10;99.80;;;;;;4996174;28;20661;-79
2023/06/10 09:31:41;;;;;;;7.47;6.73;;;30.30;99.00;;;;;;4988690;28;20201;-80
2023/06/10 09:34:11;;;;;;;6.57;6.07;;;30.20;98.70;;;;;;4991549;28;20224;-80
2023/06/10 09:36:38;;;;;;;7.63;7.03;;;30.40;98.70;;;;;;4998725;28;20249;-80
2023/06/10 09:39:14;;;;;;;7.10;6.60;;;30.40;99.80;;;;;;4993394;28;20204;-80
2023/06/10 09:41:42;;;;;;;7.43;6.57;;;30.40;98.70;;;;;;4993559;28;20201;-79
2023/06/10 09:44:13;;;;;;;6.60;6.10;;;30.60;99.90;;;;;;4993091;28;20217;-79
2023/06/10 09:46:40;;;;;;;6.93;6.33;;;30.40;97.30;;;;;;4994491;28;20244;-80
2023/06/10 09:49:07;;;;;;;7.10;6.53;;;30.70;96.60;;;;;;4994119;28;20325;-80
2023/06/10 09:51:35;;;;;;;6.67;6.17;;;31.00;96.20;;;;;;4995005;28;20193;-80
2023/06/10 09:54:04;;;;;;;6.50;6.00;;;30.80;95.00;;;;;;4996992;28;20277;-79
2023/06/10 09:56:35;;;;;;;7.03;6.40;;;30.20;95.60;;;;;;4999460;28;20220;-80
2023/06/10 09:59:02;;;;;;;5.30;4.90;;;30.60;95.80;;;;;;4996648;28;20192;-80
2023/06/10 10:01:31;;;;;;;4.60;4.20;;;30.60;95.20;;;;;;4988075;28;20271;-81
2023/06/10 10:03:58;;;;;;;7.20;6.70;;;30.40;96.50;;;;;;4994627;28;20252;-80
2023/06/10 10:06:26;;;;;;;5.70;5.23;;;30.20;95.80;;;;;;4996650;28;20267;-79
2023/06/10 10:08:54;;;;;;;4.00;3.70;;;30.30;96.90;;;;;;4994233;28;20213;-80
2023/06/10 10:11:22;;;;;;;4.20;3.80;;;30.40;95.00;;;;;;4997490;28;20397;-80
2023/06/10 10:13:50;;;;;;;4.80;4.27;;;30.70;96.00;;;;;;4998008;28;20303;-80
2023/06/10 10:16:19;;;;;;;7.03;6.47;;;30.10;95.60;;;;;;4996507;28;20205;-78
2023/06/10 10:18:50;;;;;;;7.70;7.00;;;29.50;96.00;;;;;;4996547;28;20197;-79
2023/06/10 10:21:21;;;;;;;7.20;6.70;;;29.80;97.10;;;;;;4996233;28;20304;-79
2023/06/10 10:24:00;;;;;;;4.37;4.00;;;28.90;96.80;;;;;;4996163;28;20272;-80
2023/06/10 10:26:27;;;;;;;4.37;3.97;;;28.80;97.10;;;;;;4996159;28;20200;-79
2023/06/10 10:29:03;;;;;;;4.60;4.20;;;29.00;97.30;;;;;;4996384;28;20217;-79
2023/06/10 10:31:33;;;;;;;4.03;3.63;;;29.20;98.20;;;;;;4998265;28;20200;-79
2023/06/10 10:34:02;;;;;;;5.00;3.70;;;29.80;98.30;;;;;;4996425;28;20225;-80
2023/06/10 10:36:29;;;;;;;4.50;4.10;;;29.80;96.30;;;;;;4996493;28;20213;-81
2023/06/10 10:38:58;;;;;;;4.23;3.83;;;29.90;96.30;;;;;;4995902;28;20201;-80
2023/06/10 10:41:27;;;;;;;4.27;3.87;;;30.10;96.90;;;;;;5000207;28;20254;-80
2023/06/10 10:43:54;;;;;;;5.43;4.60;;;30.10;95.70;;;;;;4993414;28;20224;-80
2023/06/10 10:46:21;;;;;;;5.80;4.77;;;30.00;97.20;;;;;;4995790;28;20205;-81
2023/06/10 10:48:53;;;;;;;6.17;4.57;;;29.70;96.20;;;;;;4999044;28;20311;-79
2023/06/10 10:51:20;;;;;;;5.80;4.00;;;29.40;96.80;;;;;;4996138;28;20236;-80
2023/06/10 10:54:13;;;;;;;4.43;3.70;;;29.20;97.30;;;;;;4995736;28;20221;-80
2023/06/10 10:56:39;;;;;;;4.90;4.00;;;29.70;96.80;;;;;;4986774;28;20702;-80
2023/06/10 10:59:09;;;;;;;9.27;4.50;;;29.90;94.70;;;;;;4995555;28;20193;-80
2023/06/10 11:01:45;;;;;;;4.30;3.90;;;29.60;94.30;;;;;;4994526;28;20193;-80
2023/06/10 11:04:12;;;;;;;4.43;4.03;;;29.60;95.80;;;;;;4981642;28;20267;-80
2023/06/10 11:06:39;;;;;;;4.10;3.80;;;29.50;95.70;;;;;;4998058;28;20201;-80
2023/06/10 11:09:28;;;;;;;5.63;4.23;;;29.40;96.30;;;;;;4987689;28;20210;-78
2023/06/10 11:11:58;;;;;;;4.70;4.10;;;29.50;96.30;;;;;;5001334;28;20649;-83
2023/06/10 11:14:28;;;;;;;3.80;3.50;;;29.20;96.90;;;;;;4995703;28;20205;-81
2023/06/10 11:16:58;;;;;;;5.10;4.00;;;29.30;97.10;;;;;;4995545;28;20683;-79
2023/06/10 11:19:35;;;;;;;4.73;4.03;;;29.10;97.10;;;;;;4997802;28;20197;-80
2023/06/10 11:22:04;;;;;;;5.03;4.37;;;29.10;97.00;;;;;;4998509;28;20291;-81
2023/06/10 11:24:32;;;;;;;6.03;4.13;;;28.60;97.60;;;;;;4995103;28;20204;-77
2023/06/10 11:27:18;;;;;;;7.30;6.73;;;28.50;98.40;;;;;;4996969;28;20201;-81
2023/06/10 11:30:18;;;;;;;4.93;4.53;;;28.20;97.20;;;;;;4995591;28;20252;-79
2023/06/10 11:32:44;;;;;;;4.30;3.90;;;28.20;97.30;;;;;;4988965;28;20229;-79
2023/06/10 11:35:11;;;;;;;4.20;3.90;;;28.40;97.80;;;;;;5000106;28;20225;-79
2023/06/10 11:37:38;;;;;;;4.00;3.70;;;28.50;98.00;;;;;;4996704;28;20197;-82
2023/06/10 11:40:09;;;;;;;7.23;4.07;;;28.70;97.30;;;;;;4990964;28;20293;-78
2023/06/10 11:42:41;;;;;;;6.17;5.57;;;28.70;97.00;;;;;;5009336;28;20235;-79
2023/06/10 11:45:09;;;;;;;6.17;5.70;;;28.80;96.50;;;;;;4992968;28;20197;-78
2023/06/10 11:47:36;;;;;;;6.33;5.63;;;28.70;97.10;;;;;;4987567;28;20227;-80
2023/06/10 11:50:03;;;;;;;6.67;6.17;;;28.30;97.20;;;;;;4994520;28;20228;-79
2023/06/10 11:52:32;;;;;;;6.13;5.63;;;27.90;96.60;;;;;;4985095;28;20312;-76
2023/06/10 11:54:59;;;;;;;6.00;4.80;;;27.60;97.50;;;;;;5001347;28;20200;-76
2023/06/10 11:57:27;;;;;;;7.67;7.07;;;27.30;98.70;;;;;;4994372;28;20198;-76
2023/06/10 11:59:54;;;;;;;7.77;7.17;;;27.30;97.90;;;;;;4994053;28;20212;-76
2023/06/10 12:02:22;;;;;;;7.60;7.00;;;27.70;98.70;;;;;;4992404;28;20229;-76
2023/06/10 12:04:48;;;;;;;6.93;6.40;;;27.80;97.80;;;;;;4993985;28;20625;-77
2023/06/10 12:07:19;;;;;;;5.30;4.23;;;28.00;97.40;;;;;;4992879;28;20296;-77
2023/06/10 12:09:46;;;;;;;6.40;5.90;;;27.80;96.80;;;;;;4997111;28;20263;-76
2023/06/10 12:12:13;;;;;;;7.47;6.87;;;27.60;97.30;;;;;;4992808;28;20287;-76
2023/06/10 12:14:56;;;;;;;7.70;7.00;;;27.70;97.70;;;;;;4997964;28;20193;-76
2023/06/10 12:17:24;;;;;;;7.00;6.50;;;27.80;98.00;;;;;;4988839;28;20198;-76
2023/06/10 12:19:51;;;;;;;7.47;6.90;;;27.90;96.80;;;;;;5009176;28;20674;-77
2023/06/10 12:22:19;;;;;;;5.20;3.93;;;27.90;96.40;;;;;;5012812;28;20240;-76
2023/06/10 12:24:46;;;;;;;4.47;3.87;;;27.60;97.70;;;;;;5007011;28;20205;-77
2023/06/10 12:27:13;;;;;;;7.10;6.00;;;27.40;96.70;;;;;;5007206;28;20550;-77
2023/06/10 12:29:51;;;;;;;7.53;6.93;;;27.20;97.40;;;;;;4990822;28;20212;-76
2023/06/10 12:32:20;;;;;;;7.80;7.00;;;27.00;97.30;;;;;;5004813;28;20228;-76
2023/06/10 12:34:47;;;;;;;4.30;3.90;;;27.20;97.60;;;;;;5007684;28;20204;-77
2023/06/10 12:37:14;;;;;;;7.13;6.53;;;27.40;97.20;;;;;;5008653;28;20284;-76
2023/06/10 12:39:42;;;;;;;6.73;6.23;;;27.70;97.60;;;;;;4996173;28;20624;-77
2023/06/10 12:42:10;;;;;;;6.90;6.30;;;27.70;97.90;;;;;;5009105;28;20227;-77
2023/06/10 12:44:41;;;;;;;7.00;6.50;;;27.50;97.80;;;;;;5004397;28;20223;-77
2023/06/10 12:47:10;;;;;;;7.17;6.57;;;27.30;98.20;;;;;;5002470;28;20291;-77
2023/06/10 12:49:38;;;;;;;5.80;5.33;;;27.10;98.10;;;;;;5012401;28;20647;-77
2023/06/10 12:52:05;;;;;;;5.40;5.00;;;26.90;98.50;;;;;;5007883;28;20208;-77